Haverhill, NH (03765)

9:11 PM EST on December 07, 2016 (GMT -0500)
Woodland | | Change Station

Elev 1053 ft 44.03 °N, 72.04 °W | Updated 10 seconds ago

Mist
Mist
29.2 °F
Feels Like 29 °F
N
0.0
Wind Variable Wind from SE

Today
High -- | Low -- °F
--% Chance of Precip.
Yesterday
High -- | Low -- °F
Precip. -- in
Pressure 29.96 in
Visibility 2.5 miles
Clouds
Windchill 29 °F
Dew Point 29 °F
Humidity 98%
Rainfall 0.04 in
Snow Depth Not available.
7:09 AM 4:10 PM
First Quarter, 58% visible
METAR K1P1 080155Z AUTO 00000KT 2 1/2SM BR M01/M01 A2996 RMK AO2 T10061007
Pressure 29.96 in
Visibility 2.5 miles
Clouds
Windchill 29 °F
Dew Point 29 °F
Humidity 98%
Rainfall 0.04 in
Snow Depth Not available.
7:09 AM 4:10 PM
First Quarter, 58% visible
METAR K1P1 080155Z AUTO 00000KT 2 1/2SM BR M01/M01 A2996 RMK AO2 T10061007

10-Day Weather Forecast

Almanac

Astronomy

Dec. 07, 2016 Rise Set
Actual Time
Civil Twilight
Nautical Twilight
Astronomical Twilight
Moon
Length of Visible Light
Length of Day
Tomorrow will be .
, % of the Moon is Illuminated

Today's Extremes

State Highs State Lows

Community

WunderPhotos

Upload Photos

1,956,259 photos uploaded!

WunderBlog® & News

Nearby

Air Quality

  Air Quality AQ Index Pollutant
Not available.

Snow Depth

Station Depth Elevation

Earthquake Activity

City Distance Mag. Time & Date
Minimum magnitude displayed is 2.5.

Coastal Water Temperatures

Place Temperature

Stations

Nearby Weather Stations

Station Location Temp. Windchill Dew Point Humidity Wind Precip. Elev Updated Type
                   

Watches & Warnings

There are currently no watches in effect.